Terminal Aerodrome Forecast
Issued by NWS

Home | Current Version | Previous Version | Text Only | Print | Product List | Glossary On
Versions: 1 2 3 4 5 6 7 8 9 10 11 12 13 14 15 16 17
205
FTUS43 KSGF 212318 AAD
TAFJLN
TAF AMD
KJLN 212318Z 2123/2218 04008KT P6SM VCTS OVC008CB
     FM220200 06012G23KT 3SM SHRA VCTS OVC008CB
     FM220600 04010G19KT 6SM SHRA OVC008
     FM220900 02012G21KT P6SM SHRA OVC003
     FM221000 02012G23KT P6SM SHRA OVC008=

USA.gov is the U.S. government's official web portal to all federal, state and local government web resources and services.